Terminal Aerodrome Forecast
Issued by NWS Wakefield, VA

Home | Current Version | Previous Version | Text Only | Print | Product List | Glossary On
Versions: 1 2 3 4 5 6 7 8 9 10 11 12 13 14 15
000
FTUS41 KAKQ 292338
TAFECG
TAF
KECG 292338Z 3000/3024 22005KT P6SM SCT250
     FM301200 22007KT P6SM OVC100
     FM301500 25014KT P6SM -RA OVC040
     FM301900 25016G21KT P6SM SCT030=

USA.gov is the U.S. government's official web portal to all federal, state and local government web resources and services.